Flight Track Log - Related Links

Times and Time Zones

All times are in EDT time to prevent confusion due to time zone crossing. See the N8KB flight status page for this flight to view local times or setup timezone preferences in your user account.

Time Position Orientation Groundspeed Altitude Reporting Facility
EDT Latitude Longitude Course Direction KTS MPH feet Rate Location/Type
Thu 10:17:54 AM 36.5775 -121.8094 83° East 153 176 25,000  Level Oakland Center
Thu 10:18:55 AM 36.5819 -121.7669 83° East 144 166 3,200 -9,836 Descending Oakland Center
Thu 10:19:56 AM 36.5894 -121.7122 80° East 135 155 5,000 1,918 Climbing Oakland Center
Thu 10:20:57 AM 36.5767 -121.6700 111° Southeast 152 175 7,100 2,115 Climbing Oakland Center
Thu 10:21:58 AM 36.5450 -121.6125 124° Southeast 166 191 9,300 1,902 Climbing Oakland Center
Thu 10:23:00 AM 36.5186 -121.5639 124° Southeast 169 194 11,000 1,610 Climbing Oakland Center
Thu 10:24:01 AM 36.4928 -121.5128 122° Southeast 175 201 12,600 1,869 Climbing Oakland Center
Thu 10:25:02 AM 36.4625 -121.4550 123° Southeast 198 228 14,800 1,131 Climbing Oakland Center
Thu 10:26:03 AM 36.4322 -121.3928 121° Southeast 209 241 14,900 1,180 Climbing Oakland Center
Thu 10:27:04 AM 36.4050 -121.3375 121° Southeast 192 221 17,200 1,672 Climbing Oakland Center
Thu 10:28:05 AM 36.3736 -121.2819 125° Southeast 196 226 18,300 878 Climbing Oakland Center
Thu 10:29:07 AM 36.3417 -121.2203 123° Southeast 210 242 19,000 848 Climbing Oakland Center
Thu 10:31:09 AM 36.2603 -121.0700 124° Southeast 259 298 20,900 1,049 Climbing Oakland Center
Thu 10:32:10 AM 36.2339 -121.0056 117° Southeast 216 249 22,200 1,082 Climbing Oakland Center
Thu 10:33:11 AM 36.1983 -120.9319 121° Southeast 208 239 23,100 885 Climbing Oakland Center
Thu 10:34:12 AM 36.1625 -120.8717 126° Southeast 216 249 24,000 829 Climbing Oakland Center
Thu 10:35:14 AM 36.1300 -120.8081 122° Southeast 219 252 24,800 488 Climbing Oakland Center
Thu 10:36:15 AM 36.0942 -120.7408 123° Southeast 230 265 25,000 98 Climbing Oakland Center
Thu 10:37:16 AM 36.0494 -120.6658 126° Southeast 268 308 25,000  Level Oakland Center
Thu 10:38:17 AM 36.0047 -120.5817 123° Southeast 289 333 25,000  Level Oakland Center
Thu 10:39:18 AM 35.9614 -120.4944 122° Southeast 296 341 25,000  Level Oakland Center
Thu 10:40:20 AM 35.9147 -120.4067 123° Southeast 303 349 25,000  Level Oakland Center
Thu 10:41:21 AM 35.8672 -120.3192 124° Southeast 305 351 25,000  Level Oakland Center
Thu 10:42:22 AM 35.8211 -120.2311 123° Southeast 306 352 25,000  Level Oakland Center
Thu 10:43:23 AM 35.7736 -120.1422 123° Southeast 307 353 25,000  Level Oakland Center
Thu 10:44:24 AM 35.7275 -120.0553 123° Southeast 304 350 25,000  Level Oakland Center
Thu 10:45:26 AM 35.6725 -119.9497 123° Southeast 304 350 25,000  Level Oakland Center
Thu 10:46:27 AM 35.6256 -119.8639 124° Southeast 302 348 25,000  Level Oakland Center
Thu 10:47:28 AM 35.5800 -119.7789 123° Southeast 300 345 25,000  Level Oakland Center
Thu 10:48:29 AM 35.5339 -119.6942 124° Southeast 298 343 25,000  Level Oakland Center
Thu 10:49:30 AM 35.4869 -119.6094 124° Southeast 298 343 25,000  Level Oakland Center
Thu 10:50:31 AM 35.4411 -119.5242 123° Southeast 299 344 25,000  Level Oakland Center
Thu 10:50:46 AM 35.4325 -119.5075 122° Southeast 298 343 25,000  Level Los Angeles Center
Thu 10:51:48 AM 35.3858 -119.4228 124° Southeast 299 344 25,000  Level Los Angeles Center
Thu 10:52:50 AM 35.3392 -119.3361 123° Southeast 302 348 25,000  Level Los Angeles Center
Thu 10:53:51 AM 35.2939 -119.2508 123° Southeast 300 345 25,000  Level Los Angeles Center
Thu 10:54:54 AM 35.2378 -119.1483 124° Southeast 302 348 25,000  Level Los Angeles Center
Thu 10:55:56 AM 35.1900 -119.0647 125° Southeast 301 346 25,000  Level Los Angeles Center
Thu 10:56:58 AM 35.1436 -118.9794 124° Southeast 301 346 25,000  Level Los Angeles Center
Thu 10:58:00 AM 35.0956 -118.8958 125° Southeast 301 346 25,000  Level Los Angeles Center
Thu 10:59:02 AM 35.0481 -118.8114 124° Southeast 301 346 25,000 48 Level Los Angeles Center
Thu 11:00:04 AM 34.9933 -118.7081 123° Southeast 302 348 25,100 48 Climbing Los Angeles Center
Thu 11:01:06 AM 34.9450 -118.6236 125° Southeast 304 350 25,100 -48 Level Los Angeles Center
Thu 11:02:08 AM 34.9008 -118.5439 124° Southeast 305 351 25,000  Descending Los Angeles Center
Thu 11:03:22 AM 34.8569 -118.4619 123° Southeast 296 341 25,100 44 Climbing Los Angeles Center
Thu 11:04:24 AM 34.7886 -118.3464 126° Southeast 301 346 25,100  Level Los Angeles Center
Thu 11:05:27 AM 34.7394 -118.2625 125° Southeast 305 351 25,100  Level Los Angeles Center
Thu 11:06:28 AM 34.6925 -118.1781 124° Southeast 303 349 25,100  Level Los Angeles Center
Thu 11:07:30 AM 34.6433 -118.0911 124° Southeast 312 359 25,100  Level Los Angeles Center
Thu 11:08:32 AM 34.6042 -117.9994 117° Southeast 310 357 25,100 -48 Level Los Angeles Center
Thu 11:09:35 AM 34.5739 -117.8828 107° East 306 352 25,000 -48 Descending Los Angeles Center
Thu 11:10:37 AM 34.5461 -117.7842 109° East 309 356 25,000  Level Los Angeles Center
Thu 11:11:39 AM 34.5178 -117.6858 109° East 311 358 25,000  Level Los Angeles Center
Thu 11:12:41 AM 34.4878 -117.5917 111° Southeast 306 352 25,000  Level Los Angeles Center
Thu 11:13:43 AM 34.4581 -117.4944 110° East 308 354 25,000  Level Los Angeles Center
Thu 11:14:45 AM 34.4233 -117.3817 110° East 303 349 25,000  Level Los Angeles Center
Thu 11:15:47 AM 34.3950 -117.2864 110° East 304 350 25,000  Level Los Angeles Center
Thu 11:16:49 AM 34.3647 -117.1817 109° East 306 352 25,000  Level Los Angeles Center
Thu 11:17:51 AM 34.3381 -117.0942 110° East 304 350 25,000  Level Los Angeles Center
Thu 11:18:53 AM 34.3058 -117.0003 113° Southeast 304 350 25,000  Level Los Angeles Center
Thu 11:19:56 AM 34.2769 -116.9042 110° East 306 352 25,000  Level Los Angeles Center
Thu 11:20:58 AM 34.2433 -116.7883 109° East 307 353 25,000  Level Los Angeles Center
Thu 11:22:00 AM 34.2133 -116.6922 111° Southeast 307 353 25,000  Level Los Angeles Center
Thu 11:23:02 AM 34.1836 -116.5961 110° East 308 354 25,000  Level Los Angeles Center
Thu 11:24:04 AM 34.1539 -116.5000 110° East 309 356 25,000  Level Los Angeles Center
Thu 11:25:06 AM 34.1219 -116.3931 110° East 306 352 25,000  Level Los Angeles Center
Thu 11:26:08 AM 34.0922 -116.3003 111° Southeast 300 345 25,000  Level Los Angeles Center
Thu 11:27:10 AM 34.0619 -116.2056 111° Southeast 302 348 25,000  Level Los Angeles Center
Thu 11:28:12 AM 34.0317 -116.1114 111° Southeast 300 345 25,000  Level Los Angeles Center
Thu 11:29:14 AM 33.9969 -115.9972 110° East 302 348 25,000  Level Los Angeles Center
Thu 11:30:17 AM 33.9669 -115.9025 111° Southeast 302 348 25,000  Level Los Angeles Center
Thu 11:31:19 AM 33.9372 -115.8078 111° Southeast 302 348 25,000  Level Los Angeles Center
Thu 11:32:21 AM 33.9056 -115.7139 112° Southeast 302 348 25,000  Level Los Angeles Center
Thu 11:33:23 AM 33.8761 -115.6200 111° Southeast 300 345 25,000 -194 Level Los Angeles Center
Thu 11:34:25 AM 33.8403 -115.5261 115° Southeast 307 353 24,600 -581 Descending Los Angeles Center
Thu 11:35:27 AM 33.7928 -115.4100 116° Southeast 321 369 23,800 -677 Descending Los Angeles Center
Thu 11:36:29 AM 33.7675 -115.3039 106° East 329 379 23,200 -387 Descending Los Angeles Center
Thu 11:37:31 AM 33.7439 -115.2011 105° East 322 371 23,000 -97 Descending Los Angeles Center
Thu 11:38:33 AM 33.7114 -115.1064 112° Southeast 308 354 23,000  Level Los Angeles Center
Thu 11:39:35 AM 33.6767 -115.0136 114° Southeast 305 351 23,000  Level Los Angeles Center
Thu 11:40:37 AM 33.6453 -114.9211 112° Southeast 302 348 23,000  Level Los Angeles Center
Thu 11:41:40 AM 33.6108 -114.8089 110° East 300 345 23,000  Level Los Angeles Center
Thu 11:42:42 AM 33.5858 -114.7139 108° East 300 345 23,000 -484 Level Los Angeles Center
Thu 11:43:44 AM 33.5775 -114.6089 95° East 315 362 22,000 -968 Descending Los Angeles Center
Thu 11:44:46 AM 33.5694 -114.4992 95° East 330 380 21,000 -1,065 Descending Los Angeles Center
Thu 11:45:48 AM 33.5611 -114.3886 95° East 333 383 19,800 -1,258 Descending Los Angeles Center
Thu 11:46:50 AM 33.5528 -114.2728 95° East 328 377 18,400 -1,355 Descending Los Angeles Center
Thu 11:47:52 AM 33.5431 -114.1647 96° East 326 375 17,000 -763 Descending Los Angeles Center
Thu 11:48:48 AM 33.5336 -114.0603 96° East 316 364 16,900 -51 Descending Albuquerque Center
Thu 11:49:50 AM 33.5244 -113.9644 97° East 296 341 16,900  Level Albuquerque Center
Thu 11:50:52 AM 33.5314 -113.8711 85° East 284 327 16,900  Level Albuquerque Center
Thu 11:51:54 AM 33.5425 -113.7775 82° East 283 326 16,900  Level Albuquerque Center
Thu 11:52:56 AM 33.5494 -113.6842 85° East 282 325 16,900 -293 Level Albuquerque Center
Thu 11:53:57 AM 33.5586 -113.5897 83° East 284 327 16,300 -1,122 Descending Albuquerque Center
Thu 11:54:59 AM 33.5700 -113.4664 84° East 304 350 14,600 -1,471 Descending Albuquerque Center
Thu 11:55:39 AM 33.5739 -113.4125 85° East 312 359 13,800 -1,452 Descending Albuquerque Center
Thu 11:56:01 AM 33.5794 -113.3611 83° East 315 362 13,100 -1,254 Descending Albuquerque Center
Thu 11:56:46 AM 33.5831 -113.3033 86° East 313 360 12,400 -1,161 Descending Albuquerque Center
Thu 11:57:03 AM 33.5881 -113.2592 82° East 311 358 11,900 -1,167 Descending Albuquerque Center
Thu 11:57:58 AM 33.6019 -113.1639 80° East 299 344 11,000 -968 Descending Albuquerque Center
Thu 11:59:07 AM 33.6144 -113.0706 81° East 283 326 9,900 -1,053 Descending Albuquerque Center
Thu 12:00:09 PM 33.6411 -112.9842 70° East 278 320 8,700 -1,235 Descending Albuquerque Center
Thu 12:00:49 PM 33.6614 -112.9150 71° East 278 320 7,800 -1,258 Descending Albuquerque Center
Thu 12:01:11 PM 33.6683 -112.8861 74° East 274 315 7,400 -787 Descending Albuquerque Center
Thu 12:01:50 PM 33.6844 -112.8275 72° East 269 310 7,000 -387 Descending Albuquerque Center
Thu 12:02:13 PM 33.6917 -112.8044 69° East 260 299 7,000 -400 Level Albuquerque Center
Thu 12:02:50 PM 33.7097 -112.7525 67° East 240 276 6,600 -689 Descending Albuquerque Center
Thu 12:03:14 PM 33.7167 -112.7292 70° East 244 281 6,300 -590 Descending Albuquerque Center
Thu 12:03:51 PM 33.7322 -112.6728 72° East 247 284 6,000 -290 Descending Albuquerque Center
Thu 12:04:16 PM 33.7372 -112.6517 74° East 246 283 6,000  Level Albuquerque Center
Thu 12:04:52 PM 33.7519 -112.6039 70° East 233 268 6,000  Level Albuquerque Center
Thu 12:05:18 PM 33.7578 -112.5817 72° East 227 261 6,000  Level Albuquerque Center
Thu 12:05:53 PM 33.7692 -112.5308 75° East 222 255 6,000  Level Albuquerque Center
Thu 12:06:20 PM 33.7711 -112.4947 86° East 221 254 6,000  Level Albuquerque Center
Thu 12:07:22 PM 33.7686 -112.4219 92° East 218 251 6,000  Level Albuquerque Center
Thu 12:08:24 PM 33.7675 -112.3464 91° East 218 251 6,000  Level Albuquerque Center
Thu 12:09:26 PM 33.7667 -112.2767 91° East 217 250 6,000  Level Albuquerque Center
Thu 12:10:28 PM 33.7517 -112.2056 104° East 214 246 6,000  Level Albuquerque Center
Thu 12:11:30 PM 33.7281 -112.1442 115° Southeast 214 246 6,000 -484 Level Albuquerque Center
Thu 12:12:32 PM 33.6986 -112.0686 115° Southeast 208 239 5,000 -871 Descending Albuquerque Center
Thu 12:13:34 PM 33.6808 -112.0069 109° East 199 229 4,200 -726 Descending Albuquerque Center
Thu 12:14:36 PM 33.6686 -111.9489 104° East 183 211 3,500 -677 Descending Albuquerque Center
Thu 12:15:38 PM 33.6644 -111.9042 96° East 148 170 2,800 -677 Descending Albuquerque Center
Thu 12:16:40 PM 33.6469 -111.8844 137° Southeast 120 138 2,100 -629 Descending Albuquerque Center
Thu 12:17:42 PM 33.6231 -111.9125 224° Southwest 107 123 1,500 -581 Descending Albuquerque Center

Login

Don't have an account? Register now (free) for customized features, flight alerts, and more!